sensor_id;sensor_type;location;lat;lon;timestamp;pressure;altitude;pressure_sealevel;temperature;humidity
43420;BME280;29017;51.514;-0.178;2022-10-16T00:01:13;100132.56;;;15.31;77.52
43420;BME280;29017;51.514;-0.178;2022-10-16T00:03:41;100135.63;;;15.34;77.86
43420;BME280;29017;51.514;-0.178;2022-10-16T00:06:09;100135.03;;;15.32;77.27
43420;BME280;29017;51.514;-0.178;2022-10-16T00:08:37;100132.56;;;15.31;77.52
43420;BME280;29017;51.514;-0.178;2022-10-16T00:11:17;100128.91;;;15.32;78.04
43420;BME280;29017;51.514;-0.178;2022-10-16T00:13:47;100127.28;;;15.31;78.07
43420;BME280;29017;51.514;-0.178;2022-10-16T00:16:15;100132.38;;;15.32;78.41
43420;BME280;29017;51.514;-0.178;2022-10-16T00:18:41;100141.16;;;15.33;78.39
43420;BME280;29017;51.514;-0.178;2022-10-16T00:21:13;100136.66;;;15.33;78.16
43420;BME280;29017;51.514;-0.178;2022-10-16T00:23:40;100143.19;;;15.31;78.23
43420;BME280;29017;51.514;-0.178;2022-10-16T00:26:10;100144.41;;;15.28;77.94
43420;BME280;29017;51.514;-0.178;2022-10-16T00:28:37;100159.69;;;15.26;78.42
43420;BME280;29017;51.514;-0.178;2022-10-16T00:31:06;100152.56;;;15.27;78.53
43420;BME280;29017;51.514;-0.178;2022-10-16T00:33:34;100150.28;;;15.24;78.47
43420;BME280;29017;51.514;-0.178;2022-10-16T00:36:03;100148.66;;;15.23;78.73
43420;BME280;29017;51.514;-0.178;2022-10-16T00:38:30;100158.22;;;15.24;78.44
43420;BME280;29017;51.514;-0.178;2022-10-16T00:40:58;100150.69;;;15.21;78.95
43420;BME280;29017;51.514;-0.178;2022-10-16T00:43:52;100143.75;;;15.20;79.00
43420;BME280;29017;51.514;-0.178;2022-10-16T00:46:22;100152.31;;;15.15;78.95
43420;BME280;29017;51.514;-0.178;2022-10-16T00:48:59;100159.84;;;15.12;79.32
43420;BME280;29017;51.514;-0.178;2022-10-16T00:51:35;100152.91;;;15.11;79.42
43420;BME280;29017;51.514;-0.178;2022-10-16T00:54:04;100153.09;;;15.09;79.58
43420;BME280;29017;51.514;-0.178;2022-10-16T00:56:34;100155.75;;;15.09;79.64
43420;BME280;29017;51.514;-0.178;2022-10-16T00:59:07;100156.97;;;15.07;79.98
43420;BME280;29017;51.514;-0.178;2022-10-16T01:01:38;100157.97;;;15.06;80.34
43420;BME280;29017;51.514;-0.178;2022-10-16T01:04:04;100158.16;;;15.04;80.45
43420;BME280;29017;51.514;-0.178;2022-10-16T01:09:31;100165.94;;;15.06;80.88
43420;BME280;29017;51.514;-0.178;2022-10-16T01:12:06;100161.22;;;15.01;80.40
43420;BME280;29017;51.514;-0.178;2022-10-16T01:20:24;100175.69;;;14.98;80.29
43420;BME280;29017;51.514;-0.178;2022-10-16T01:23:10;100184.44;;;14.99;80.07
43420;BME280;29017;51.514;-0.178;2022-10-16T01:28:41;100179.75;;;14.94;80.28
43420;BME280;29017;51.514;-0.178;2022-10-16T01:31:15;100174.66;;;14.93;80.06
43420;BME280;29017;51.514;-0.178;2022-10-16T01:33:51;100173.00;;;14.92;80.12
43420;BME280;29017;51.514;-0.178;2022-10-16T01:36:50;100178.09;;;14.93;80.33
43420;BME280;29017;51.514;-0.178;2022-10-16T01:39:21;100185.66;;;14.96;80.29
43420;BME280;29017;51.514;-0.178;2022-10-16T01:42:14;100198.28;;;14.94;80.17
43420;BME280;29017;51.514;-0.178;2022-10-16T01:44:43;100199.28;;;14.93;80.18
43420;BME280;29017;51.514;-0.178;2022-10-16T01:47:13;100193.41;;;14.91;80.03
43420;BME280;29017;51.514;-0.178;2022-10-16T01:49:42;100194.41;;;14.90;80.38
43420;BME280;29017;51.514;-0.178;2022-10-16T01:52:17;100195.22;;;14.91;80.39
43420;BME280;29017;51.514;-0.178;2022-10-16T01:54:47;100191.34;;;14.87;80.50
43420;BME280;29017;51.514;-0.178;2022-10-16T01:57:15;100186.41;;;14.84;80.58
43420;BME280;29017;51.514;-0.178;2022-10-16T01:59:49;100190.09;;;14.83;80.88
43420;BME280;29017;51.514;-0.178;2022-10-16T02:02:20;100207.81;;;14.82;80.77
43420;BME280;29017;51.514;-0.178;2022-10-16T02:04:53;100201.47;;;14.83;80.98
43420;BME280;29017;51.514;-0.178;2022-10-16T02:07:22;100194.16;;;14.85;81.38
43420;BME280;29017;51.514;-0.178;2022-10-16T02:09:49;100199.06;;;14.88;81.56
43420;BME280;29017;51.514;-0.178;2022-10-16T02:12:24;100207.22;;;14.87;80.71
43420;BME280;29017;51.514;-0.178;2022-10-16T02:14:53;100209.44;;;14.83;80.17
43420;BME280;29017;51.514;-0.178;2022-10-16T02:17:21;100204.34;;;14.82;80.06
43420;BME280;29017;51.514;-0.178;2022-10-16T02:19:49;100214.13;;;14.81;79.97
43420;BME280;29017;51.514;-0.178;2022-10-16T02:25:10;100224.06;;;14.73;79.62
43420;BME280;29017;51.514;-0.178;2022-10-16T02:28:17;100223.25;;;14.72;80.01
43420;BME280;29017;51.514;-0.178;2022-10-16T02:30:54;100228.53;;;14.72;79.66
43420;BME280;29017;51.514;-0.178;2022-10-16T02:33:31;100228.72;;;14.71;79.82
43420;BME280;29017;51.514;-0.178;2022-10-16T02:36:02;100233.19;;;14.70;79.69
43420;BME280;29017;51.514;-0.178;2022-10-16T02:38:30;100220.16;;;14.69;79.89
43420;BME280;29017;51.514;-0.178;2022-10-16T02:40:58;100225.44;;;14.69;80.18
43420;BME280;29017;51.514;-0.178;2022-10-16T02:43:28;100222.78;;;14.69;79.73
43420;BME280;29017;51.514;-0.178;2022-10-16T02:45:56;100234.41;;;14.68;79.86
43420;BME280;29017;51.514;-0.178;2022-10-16T02:48:23;100237.25;;;14.66;80.10
43420;BME280;29017;51.514;-0.178;2022-10-16T02:50:49;100238.06;;;14.67;80.06
43420;BME280;29017;51.514;-0.178;2022-10-16T02:53:17;100228.69;;;14.64;79.91
43420;BME280;29017;51.514;-0.178;2022-10-16T02:55:44;100249.84;;;14.64;80.14
43420;BME280;29017;51.514;-0.178;2022-10-16T02:58:11;100253.31;;;14.65;80.08
43420;BME280;29017;51.514;-0.178;2022-10-16T03:00:38;100260.66;;;14.63;79.79
43420;BME280;29017;51.514;-0.178;2022-10-16T03:03:04;100259.22;;;14.60;79.75
43420;BME280;29017;51.514;-0.178;2022-10-16T03:05:31;100266.16;;;14.61;79.17
43420;BME280;29017;51.514;-0.178;2022-10-16T03:07:58;100260.22;;;14.59;79.84
43420;BME280;29017;51.514;-0.178;2022-10-16T03:10:27;100268.16;;;14.59;79.92
43420;BME280;29017;51.514;-0.178;2022-10-16T03:12:54;100270.63;;;14.61;79.85
43420;BME280;29017;51.514;-0.178;2022-10-16T03:15:20;100271.63;;;14.60;79.13
43420;BME280;29017;51.514;-0.178;2022-10-16T03:17:47;100279.31;;;14.54;79.20
43420;BME280;29017;51.514;-0.178;2022-10-16T03:20:14;100283.81;;;14.54;79.18
43420;BME280;29017;51.514;-0.178;2022-10-16T03:22:41;100283.19;;;14.52;79.08
43420;BME280;29017;51.514;-0.178;2022-10-16T03:25:08;100282.56;;;14.50;79.25
43420;BME280;29017;51.514;-0.178;2022-10-16T03:27:35;100282.72;;;14.48;79.39
43420;BME280;29017;51.514;-0.178;2022-10-16T03:30:02;100281.13;;;14.47;79.09
43420;BME280;29017;51.514;-0.178;2022-10-16T03:32:30;100280.09;;;14.48;79.16
43420;BME280;29017;51.514;-0.178;2022-10-16T03:34:57;100286.41;;;14.47;79.67
43420;BME280;29017;51.514;-0.178;2022-10-16T03:37:24;100282.69;;;14.42;79.30
43420;BME280;29017;51.514;-0.178;2022-10-16T03:39:51;100278.41;;;14.41;79.16
43420;BME280;29017;51.514;-0.178;2022-10-16T03:42:18;100280.63;;;14.37;79.55
43420;BME280;29017;51.514;-0.178;2022-10-16T03:44:45;100287.75;;;14.37;79.77
43420;BME280;29017;51.514;-0.178;2022-10-16T03:47:12;100287.75;;;14.37;79.19
43420;BME280;29017;51.514;-0.178;2022-10-16T03:49:39;100299.94;;;14.38;79.76
43420;BME280;29017;51.514;-0.178;2022-10-16T03:52:06;100300.16;;;14.36;79.63
43420;BME280;29017;51.514;-0.178;2022-10-16T03:54:32;100304.44;;;14.37;79.92
43420;BME280;29017;51.514;-0.178;2022-10-16T03:56:59;100308.94;;;14.37;79.84
43420;BME280;29017;51.514;-0.178;2022-10-16T03:59:26;100309.75;;;14.37;79.82
43420;BME280;29017;51.514;-0.178;2022-10-16T04:01:53;100316.88;;;14.37;80.13
43420;BME280;29017;51.514;-0.178;2022-10-16T04:04:20;100310.91;;;14.35;80.00
43420;BME280;29017;51.514;-0.178;2022-10-16T04:06:46;100308.09;;;14.36;79.96
43420;BME280;29017;51.514;-0.178;2022-10-16T04:09:13;100327.34;;;14.30;79.51
43420;BME280;29017;51.514;-0.178;2022-10-16T04:11:40;100329.19;;;14.30;79.83
43420;BME280;29017;51.514;-0.178;2022-10-16T04:14:07;100344.06;;;14.31;79.82
43420;BME280;29017;51.514;-0.178;2022-10-16T04:16:34;100343.88;;;14.32;80.00
43420;BME280;29017;51.514;-0.178;2022-10-16T04:19:00;100341.22;;;14.32;79.81
43420;BME280;29017;51.514;-0.178;2022-10-16T04:21:28;100342.03;;;14.33;79.01
43420;BME280;29017;51.514;-0.178;2022-10-16T04:23:55;100353.63;;;14.32;79.26
43420;BME280;29017;51.514;-0.178;2022-10-16T04:26:22;100357.28;;;14.31;79.70
43420;BME280;29017;51.514;-0.178;2022-10-16T04:28:48;100371.34;;;14.31;79.49
43420;BME280;29017;51.514;-0.178;2022-10-16T04:31:15;100370.69;;;14.29;79.75
43420;BME280;29017;51.514;-0.178;2022-10-16T04:33:43;100372.91;;;14.26;79.85
43420;BME280;29017;51.514;-0.178;2022-10-16T04:36:10;100385.50;;;14.24;79.96
43420;BME280;29017;51.514;-0.178;2022-10-16T04:38:37;100390.97;;;14.22;79.95
43420;BME280;29017;51.514;-0.178;2022-10-16T04:41:04;100392.19;;;14.20;80.40
43420;BME280;29017;51.514;-0.178;2022-10-16T04:43:31;100408.69;;;14.22;80.61
43420;BME280;29017;51.514;-0.178;2022-10-16T04:45:57;100411.34;;;14.22;80.80
43420;BME280;29017;51.514;-0.178;2022-10-16T04:48:24;100414.00;;;14.22;81.01
43420;BME280;29017;51.514;-0.178;2022-10-16T04:50:51;100416.00;;;14.20;80.79
43420;BME280;29017;51.514;-0.178;2022-10-16T04:53:20;100417.16;;;14.17;80.86
43420;BME280;29017;51.514;-0.178;2022-10-16T04:55:47;100420.84;;;14.16;80.98
43420;BME280;29017;51.514;-0.178;2022-10-16T04:58:14;100422.66;;;14.16;80.96
43420;BME280;29017;51.514;-0.178;2022-10-16T05:00:41;100423.66;;;14.14;80.98
43420;BME280;29017;51.514;-0.178;2022-10-16T05:03:08;100428.97;;;14.14;81.18
43420;BME280;29017;51.514;-0.178;2022-10-16T05:05:36;100433.59;;;14.12;81.35
43420;BME280;29017;51.514;-0.178;2022-10-16T05:08:03;100442.38;;;14.13;81.32
43420;BME280;29017;51.514;-0.178;2022-10-16T05:10:30;100451.13;;;14.13;81.37
43420;BME280;29017;51.514;-0.178;2022-10-16T05:12:57;100452.34;;;14.11;81.43
43420;BME280;29017;51.514;-0.178;2022-10-16T05:15:24;100456.59;;;14.12;81.24
43420;BME280;29017;51.514;-0.178;2022-10-16T05:17:53;100456.97;;;14.09;81.03
43420;BME280;29017;51.514;-0.178;2022-10-16T05:20:20;100465.75;;;14.09;80.87
43420;BME280;29017;51.514;-0.178;2022-10-16T05:22:47;100467.75;;;14.07;80.64
43420;BME280;29017;51.514;-0.178;2022-10-16T05:25:14;100467.28;;;14.04;80.70
43420;BME280;29017;51.514;-0.178;2022-10-16T05:27:41;100464.66;;;14.04;80.65
43420;BME280;29017;51.514;-0.178;2022-10-16T05:30:08;100481.72;;;14.01;80.46
43420;BME280;29017;51.514;-0.178;2022-10-16T05:32:38;100481.06;;;13.99;80.42
43420;BME280;29017;51.514;-0.178;2022-10-16T05:35:05;100481.47;;;13.96;79.61
43420;BME280;29017;51.514;-0.178;2022-10-16T05:37:37;100489.84;;;14.00;79.90
43420;BME280;29017;51.514;-0.178;2022-10-16T05:40:05;100490.28;;;14.03;79.56
43420;BME280;29017;51.514;-0.178;2022-10-16T05:42:31;100496.22;;;14.05;79.45
43420;BME280;29017;51.514;-0.178;2022-10-16T05:44:58;100506.44;;;14.08;79.41
43420;BME280;29017;51.514;-0.178;2022-10-16T05:47:25;100509.25;;;14.07;78.25
43420;BME280;29017;51.514;-0.178;2022-10-16T05:49:53;100508.97;;;14.02;77.96
43420;BME280;29017;51.514;-0.178;2022-10-16T05:52:19;100507.97;;;14.03;78.01
43420;BME280;29017;51.514;-0.178;2022-10-16T05:54:46;100519.22;;;14.05;78.16
43420;BME280;29017;51.514;-0.178;2022-10-16T05:57:13;100523.28;;;14.07;78.49
43420;BME280;29017;51.514;-0.178;2022-10-16T05:59:40;100527.75;;;14.07;77.94
43420;BME280;29017;51.514;-0.178;2022-10-16T06:02:12;100523.50;;;14.06;77.90
43420;BME280;29017;51.514;-0.178;2022-10-16T06:04:39;100518.56;;;14.03;77.92
43420;BME280;29017;51.514;-0.178;2022-10-16T06:07:06;100529.34;;;14.01;78.07
43420;BME280;29017;51.514;-0.178;2022-10-16T06:09:32;100531.34;;;13.99;78.40
43420;BME280;29017;51.514;-0.178;2022-10-16T06:11:59;100531.72;;;13.96;78.38
43420;BME280;29017;51.514;-0.178;2022-10-16T06:14:26;100536.19;;;13.96;78.53
43420;BME280;29017;51.514;-0.178;2022-10-16T06:16:53;100541.66;;;13.94;78.47
43420;BME280;29017;51.514;-0.178;2022-10-16T06:19:20;100534.09;;;13.91;78.84
43420;BME280;29017;51.514;-0.178;2022-10-16T06:21:46;100538.72;;;13.89;78.62
43420;BME280;29017;51.514;-0.178;2022-10-16T06:24:14;100542.19;;;13.90;78.89
43420;BME280;29017;51.514;-0.178;2022-10-16T06:26:41;100548.66;;;13.87;78.70
43420;BME280;29017;51.514;-0.178;2022-10-16T06:29:08;100543.38;;;13.87;78.86
43420;BME280;29017;51.514;-0.178;2022-10-16T06:31:35;100553.78;;;13.89;79.01
43420;BME280;29017;51.514;-0.178;2022-10-16T06:34:02;100548.66;;;13.87;78.66
43420;BME280;29017;51.514;-0.178;2022-10-16T06:36:31;100556.41;;;13.89;78.92
43420;BME280;29017;51.514;-0.178;2022-10-16T06:38:58;100553.22;;;13.93;79.23
43420;BME280;29017;51.514;-0.178;2022-10-16T06:41:24;100548.94;;;13.92;78.61
43420;BME280;29017;51.514;-0.178;2022-10-16T06:43:51;100558.69;;;13.92;78.39
43420;BME280;29017;51.514;-0.178;2022-10-16T06:46:21;100551.56;;;13.92;78.64
43420;BME280;29017;51.514;-0.178;2022-10-16T06:48:49;100553.41;;;13.92;78.51
43420;BME280;29017;51.514;-0.178;2022-10-16T06:51:20;100573.56;;;13.93;78.50
43420;BME280;29017;51.514;-0.178;2022-10-16T06:53:53;100570.91;;;13.93;78.21
43420;BME280;29017;51.514;-0.178;2022-10-16T06:56:29;100578.22;;;13.91;78.42
43420;BME280;29017;51.514;-0.178;2022-10-16T06:58:58;100581.88;;;13.90;78.85
43420;BME280;29017;51.514;-0.178;2022-10-16T07:01:26;100598.72;;;13.89;78.68
43420;BME280;29017;51.514;-0.178;2022-10-16T07:03:53;100598.06;;;13.87;78.64
43420;BME280;29017;51.514;-0.178;2022-10-16T07:06:22;100610.97;;;13.90;78.39
43420;BME280;29017;51.514;-0.178;2022-10-16T07:08:49;100615.25;;;13.91;78.10
43420;BME280;29017;51.514;-0.178;2022-10-16T07:11:21;100618.91;;;13.90;78.11
43420;BME280;29017;51.514;-0.178;2022-10-16T07:13:49;100621.53;;;13.90;78.34
43420;BME280;29017;51.514;-0.178;2022-10-16T07:16:24;100632.75;;;13.92;78.46
43420;BME280;29017;51.514;-0.178;2022-10-16T07:18:56;100645.63;;;13.95;78.17
43420;BME280;29017;51.514;-0.178;2022-10-16T07:21:29;100636.88;;;13.94;78.30
43420;BME280;29017;51.514;-0.178;2022-10-16T07:23:58;100643.81;;;13.95;78.27
43420;BME280;29017;51.514;-0.178;2022-10-16T07:26:27;100649.09;;;13.95;78.25
43420;BME280;29017;51.514;-0.178;2022-10-16T07:28:54;100657.88;;;13.96;78.45
43420;BME280;29017;51.514;-0.178;2022-10-16T07:31:21;100650.56;;;13.98;78.40
43420;BME280;29017;51.514;-0.178;2022-10-16T07:33:49;100658.97;;;14.01;78.43
43420;BME280;29017;51.514;-0.178;2022-10-16T07:36:18;100661.41;;;14.03;78.08
43420;BME280;29017;51.514;-0.178;2022-10-16T07:38:45;100662.25;;;14.03;78.21
43420;BME280;29017;51.514;-0.178;2022-10-16T07:41:14;100657.41;;;14.07;77.92
43420;BME280;29017;51.514;-0.178;2022-10-16T07:43:49;100672.13;;;14.09;78.14
43420;BME280;29017;51.514;-0.178;2022-10-16T11:04:25;100823.84;;;16.09;70.97
43420;BME280;29017;51.514;-0.178;2022-10-16T11:07:51;100820.44;;;16.15;70.88
43420;BME280;29017;51.514;-0.178;2022-10-16T11:10:15;100823.88;;;16.15;70.57
43420;BME280;29017;51.514;-0.178;2022-10-16T11:12:46;100818.38;;;16.17;70.05
43420;BME280;29017;51.514;-0.178;2022-10-16T11:15:19;100822.69;;;16.18;70.08
43420;BME280;29017;51.514;-0.178;2022-10-16T11:20:42;100817.78;;;16.15;70.39
43420;BME280;29017;51.514;-0.178;2022-10-16T11:23:31;100823.88;;;16.15;70.54
43420;BME280;29017;51.514;-0.178;2022-10-16T11:26:03;100819.59;;;16.14;70.02
43420;BME280;29017;51.514;-0.178;2022-10-16T11:28:37;100820.44;;;16.15;69.92
43420;BME280;29017;51.514;-0.178;2022-10-16T11:31:28;100821.88;;;16.17;70.54
43420;BME280;29017;51.514;-0.178;2022-10-16T11:34:05;100816.75;;;16.16;70.29
43420;BME280;29017;51.514;-0.178;2022-10-16T11:36:41;100811.44;;;16.16;70.39
43420;BME280;29017;51.514;-0.178;2022-10-16T11:42:00;100804.28;;;16.16;70.39
43420;BME280;29017;51.514;-0.178;2022-10-16T11:50:33;100811.91;;;16.19;70.59
43420;BME280;29017;51.514;-0.178;2022-10-16T11:55:43;100811.69;;;16.21;68.94
43420;BME280;29017;51.514;-0.178;2022-10-16T12:00:54;100814.84;;;16.31;68.69
43420;BME280;29017;51.514;-0.178;2022-10-16T12:06:13;100818.78;;;16.35;66.85
43420;BME280;29017;51.514;-0.178;2022-10-16T12:08:46;100808.78;;;16.37;66.87
43420;BME280;29017;51.514;-0.178;2022-10-16T12:14:05;100815.16;;;16.43;67.54
43420;BME280;29017;51.514;-0.178;2022-10-16T12:16:33;100814.16;;;16.44;67.28
43420;BME280;29017;51.514;-0.178;2022-10-16T12:19:14;100811.31;;;16.45;67.32
43420;BME280;29017;51.514;-0.178;2022-10-16T12:21:44;100814.75;;;16.46;66.50
43420;BME280;29017;51.514;-0.178;2022-10-16T12:27:02;100812.16;;;16.52;66.42
43420;BME280;29017;51.514;-0.178;2022-10-16T12:29:41;100814.09;;;16.58;67.08
43420;BME280;29017;51.514;-0.178;2022-10-16T12:32:30;100798.81;;;16.60;66.96
43420;BME280;29017;51.514;-0.178;2022-10-16T12:35:25;100795.94;;;16.62;66.31
43420;BME280;29017;51.514;-0.178;2022-10-16T12:37:53;100791.25;;;16.64;66.14
43420;BME280;29017;51.514;-0.178;2022-10-16T12:40:32;100790.03;;;16.66;66.32
43420;BME280;29017;51.514;-0.178;2022-10-16T12:48:38;100784.38;;;16.76;65.65
43420;BME280;29017;51.514;-0.178;2022-10-16T12:51:22;100784.00;;;16.79;65.42
43420;BME280;29017;51.514;-0.178;2022-10-16T13:08:26;100778.75;;;16.92;67.60
43420;BME280;29017;51.514;-0.178;2022-10-16T13:22:37;100781.28;;;17.00;68.54
43420;BME280;29017;51.514;-0.178;2022-10-16T13:27:55;100780.09;;;17.09;68.74
43420;BME280;29017;51.514;-0.178;2022-10-16T13:30:28;100786.66;;;17.14;69.05
43420;BME280;29017;51.514;-0.178;2022-10-16T13:33:07;100785.25;;;17.18;69.31
43420;BME280;29017;51.514;-0.178;2022-10-16T13:35:48;100776.66;;;17.22;69.05
43420;BME280;29017;51.514;-0.178;2022-10-16T13:38:20;100780.38;;;17.28;69.02
43420;BME280;29017;51.514;-0.178;2022-10-16T13:41:17;100772.84;;;17.31;68.79
43420;BME280;29017;51.514;-0.178;2022-10-16T13:43:48;100770.78;;;17.33;68.45
43420;BME280;29017;51.514;-0.178;2022-10-16T13:46:19;100760.97;;;17.34;68.20
43420;BME280;29017;51.514;-0.178;2022-10-16T13:49:04;100759.97;;;17.35;68.09
43420;BME280;29017;51.514;-0.178;2022-10-16T13:51:32;100755.66;;;17.34;67.84
43420;BME280;29017;51.514;-0.178;2022-10-16T13:53:59;100752.00;;;17.35;67.82
43420;BME280;29017;51.514;-0.178;2022-10-16T13:56:28;100752.81;;;17.35;67.65
43420;BME280;29017;51.514;-0.178;2022-10-16T13:59:00;100750.75;;;17.37;68.13
43420;BME280;29017;51.514;-0.178;2022-10-16T14:01:30;100759.78;;;17.36;68.14
43420;BME280;29017;51.514;-0.178;2022-10-16T14:04:05;100757.72;;;17.38;68.97
43420;BME280;29017;51.514;-0.178;2022-10-16T14:06:33;100763.88;;;17.39;68.77
43420;BME280;29017;51.514;-0.178;2022-10-16T14:09:05;100769.00;;;17.40;69.10
43420;BME280;29017;51.514;-0.178;2022-10-16T14:11:34;100761.00;;;17.40;69.17
43420;BME280;29017;51.514;-0.178;2022-10-16T14:14:03;100754.88;;;17.40;69.33
43420;BME280;29017;51.514;-0.178;2022-10-16T14:16:31;100767.97;;;17.41;69.68
43420;BME280;29017;51.514;-0.178;2022-10-16T14:19:02;100761.63;;;17.42;69.17
43420;BME280;29017;51.514;-0.178;2022-10-16T14:21:32;100754.47;;;17.43;69.26
43420;BME280;29017;51.514;-0.178;2022-10-16T14:24:11;100752.63;;;17.43;69.49
43420;BME280;29017;51.514;-0.178;2022-10-16T14:26:43;100748.13;;;17.44;69.59
43420;BME280;29017;51.514;-0.178;2022-10-16T14:29:19;100750.78;;;17.44;70.12
43420;BME280;29017;51.514;-0.178;2022-10-16T14:34:34;100745.66;;;17.42;70.69
43420;BME280;29017;51.514;-0.178;2022-10-16T14:37:19;100756.28;;;17.42;70.30
43420;BME280;29017;51.514;-0.178;2022-10-16T14:39:55;100760.81;;;17.42;70.46
43420;BME280;29017;51.514;-0.178;2022-10-16T14:42:27;100751.19;;;17.41;70.12
43420;BME280;29017;51.514;-0.178;2022-10-16T14:45:08;100761.63;;;17.42;70.48
43420;BME280;29017;51.514;-0.178;2022-10-16T14:47:45;100758.97;;;17.42;70.65
43420;BME280;29017;51.514;-0.178;2022-10-16T14:50:16;100764.09;;;17.44;70.89
43420;BME280;29017;51.514;-0.178;2022-10-16T14:52:44;100757.94;;;17.43;71.37
43420;BME280;29017;51.514;-0.178;2022-10-16T14:55:11;100760.59;;;17.43;71.75
43420;BME280;29017;51.514;-0.178;2022-10-16T14:57:39;100750.97;;;17.42;71.55
43420;BME280;29017;51.514;-0.178;2022-10-16T15:00:15;100754.47;;;17.43;71.90
43420;BME280;29017;51.514;-0.178;2022-10-16T15:02:42;100750.38;;;17.40;71.95
43420;BME280;29017;51.514;-0.178;2022-10-16T15:05:19;100763.69;;;17.40;72.44
43420;BME280;29017;51.514;-0.178;2022-10-16T15:07:46;100758.34;;;17.40;72.10
43420;BME280;29017;51.514;-0.178;2022-10-16T15:10:13;100767.16;;;17.41;72.23
43420;BME280;29017;51.514;-0.178;2022-10-16T15:12:41;100771.66;;;17.40;72.49
43420;BME280;29017;51.514;-0.178;2022-10-16T15:17:52;100777.34;;;17.37;73.37
43420;BME280;29017;51.514;-0.178;2022-10-16T15:20:20;100769.78;;;17.34;73.18
43420;BME280;29017;51.514;-0.178;2022-10-16T15:22:46;100770.78;;;17.33;73.20
43420;BME280;29017;51.514;-0.178;2022-10-16T15:27:46;100768.53;;;17.30;73.36
43420;BME280;29017;51.514;-0.178;2022-10-16T15:30:13;100756.25;;;17.29;73.05
43420;BME280;29017;51.514;-0.178;2022-10-16T15:32:40;100753.59;;;17.29;73.14
43420;BME280;29017;51.514;-0.178;2022-10-16T15:35:08;100749.94;;;17.30;73.49
43420;BME280;29017;51.514;-0.178;2022-10-16T15:37:35;100740.31;;;17.29;73.79
43420;BME280;29017;51.514;-0.178;2022-10-16T15:40:02;100728.00;;;17.28;74.11
43420;BME280;29017;51.514;-0.178;2022-10-16T15:42:29;100728.22;;;17.27;74.61
43420;BME280;29017;51.514;-0.178;2022-10-16T15:44:56;100720.44;;;17.25;74.52
43420;BME280;29017;51.514;-0.178;2022-10-16T15:47:23;100718.59;;;17.26;74.79
43420;BME280;29017;51.514;-0.178;2022-10-16T15:49:51;100705.50;;;17.24;74.94
43420;BME280;29017;51.514;-0.178;2022-10-16T15:52:18;100710.63;;;17.32;80.67
43420;BME280;29017;51.514;-0.178;2022-10-16T15:54:45;100711.47;;;17.39;83.13
43420;BME280;29017;51.514;-0.178;2022-10-16T15:57:19;100720.91;;;17.42;83.43
43420;BME280;29017;51.514;-0.178;2022-10-16T15:59:47;100718.84;;;17.44;84.86
43420;BME280;29017;51.514;-0.178;2022-10-16T16:02:14;100716.84;;;17.46;85.54
43420;BME280;29017;51.514;-0.178;2022-10-16T16:04:41;100717.84;;;17.45;84.05
43420;BME280;29017;51.514;-0.178;2022-10-16T16:07:10;100721.94;;;17.41;81.92
43420;BME280;29017;51.514;-0.178;2022-10-16T16:09:37;100709.44;;;17.35;80.59
43420;BME280;29017;51.514;-0.178;2022-10-16T16:12:05;100705.31;;;17.32;80.93
43420;BME280;29017;51.514;-0.178;2022-10-16T16:14:32;100705.53;;;17.31;82.01
43420;BME280;29017;51.514;-0.178;2022-10-16T16:16:59;100704.06;;;17.28;81.71
43420;BME280;29017;51.514;-0.178;2022-10-16T16:19:26;100702.25;;;17.29;82.62
43420;BME280;29017;51.514;-0.178;2022-10-16T16:21:55;100687.72;;;17.25;81.71
43420;BME280;29017;51.514;-0.178;2022-10-16T16:24:23;100691.38;;;17.24;82.30
43420;BME280;29017;51.514;-0.178;2022-10-16T16:26:51;100694.03;;;17.24;81.91
43420;BME280;29017;51.514;-0.178;2022-10-16T16:29:18;100678.09;;;17.24;82.39
43420;BME280;29017;51.514;-0.178;2022-10-16T16:31:51;100682.78;;;17.22;82.13
43420;BME280;29017;51.514;-0.178;2022-10-16T16:34:25;100682.16;;;17.20;81.28
43420;BME280;29017;51.514;-0.178;2022-10-16T16:36:52;100670.72;;;17.19;81.36
43420;BME280;29017;51.514;-0.178;2022-10-16T16:39:19;100669.69;;;17.20;82.22
43420;BME280;29017;51.514;-0.178;2022-10-16T16:41:54;100664.38;;;17.20;81.92
43420;BME280;29017;51.514;-0.178;2022-10-16T16:44:24;100667.41;;;17.17;81.28
43420;BME280;29017;51.514;-0.178;2022-10-16T16:46:51;100666.41;;;17.18;81.10
43420;BME280;29017;51.514;-0.178;2022-10-16T16:49:18;100676.44;;;17.16;81.21
43420;BME280;29017;51.514;-0.178;2022-10-16T16:51:52;100685.44;;;17.15;82.08
43420;BME280;29017;51.514;-0.178;2022-10-16T16:54:23;100686.63;;;17.13;81.58
43420;BME280;29017;51.514;-0.178;2022-10-16T16:56:50;100702.81;;;17.11;81.75
43420;BME280;29017;51.514;-0.178;2022-10-16T16:59:19;100685.19;;;17.10;81.43
43420;BME280;29017;51.514;-0.178;2022-10-16T17:01:52;100681.09;;;17.07;81.39
43420;BME280;29017;51.514;-0.178;2022-10-16T17:04:23;100686.41;;;17.07;82.07
43420;BME280;29017;51.514;-0.178;2022-10-16T17:06:52;100672.50;;;17.05;81.23
43420;BME280;29017;51.514;-0.178;2022-10-16T17:09:21;100668.00;;;17.06;81.91
43420;BME280;29017;51.514;-0.178;2022-10-16T17:11:50;100668.00;;;17.06;81.76
43420;BME280;29017;51.514;-0.178;2022-10-16T17:14:17;100669.84;;;17.05;82.84
43420;BME280;29017;51.514;-0.178;2022-10-16T17:16:44;100677.19;;;17.03;82.86
43420;BME280;29017;51.514;-0.178;2022-10-16T17:19:14;100676.38;;;17.03;82.35
43420;BME280;29017;51.514;-0.178;2022-10-16T17:21:41;100682.50;;;17.03;83.37
43420;BME280;29017;51.514;-0.178;2022-10-16T17:24:15;100679.03;;;17.03;83.19
43420;BME280;29017;51.514;-0.178;2022-10-16T17:26:42;100681.50;;;17.04;83.24
43420;BME280;29017;51.514;-0.178;2022-10-16T17:29:15;100683.13;;;17.05;83.83
43420;BME280;29017;51.514;-0.178;2022-10-16T17:31:49;100676.38;;;17.03;84.25
43420;BME280;29017;51.514;-0.178;2022-10-16T17:34:17;100674.72;;;17.02;84.88
43420;BME280;29017;51.514;-0.178;2022-10-16T17:36:44;100682.69;;;17.02;85.37